»·PEaware :: N921VN KSAD-KTUS

N921VN :: KSAD-KTUS

FLIGHT INFORMATION

Flight Status: Arrived
Operator: Privately registered:
United States
More flights under this callsign
Pilot: Kevin M. (7)
Aircraft: CESSNA 172 SKYHAWK
(C172)
More flights by this aircraft type
Origin: KSAD Safford Regl
United States
Destination: KTUS Tucson Intl
United States
More flights between these airports :: More routes between these airports
Route:
File this flight plan on PilotEdge
Remarks:
Altitude:
(Current/Filed)
8,500ft
Speed:
(Current/Filed)
140kts
Departed: 17-Nov-20 12:21 PM
Arrived: 17-Nov-20 01:06 PM
Distance/Time
Traveled:
79nm/0:45
Distance/Time
To Go:
Arrived

Flight Plot

Page will automatically refresh every two minutes.

Flight plan parsing failed; only flown route is shown


Map Options




Map Legend


Flown Route
Filed Route
Departure Airport
Arrival Airport
Navaid (VOR, NDB)
Fix

Horizontal Profiles

Position Reports

Time Latitude Longitude Heading Altitude Ground
Speed
17-Nov-20 12:16 32.852476 -109.637125 51 3170ft 0kts
17-Nov-20 12:18 32.852497 -109.637082 66 3170ft 4kts
17-Nov-20 12:18 32.853247 -109.636977 56 3170ft 2kts
17-Nov-20 12:19 32.853936 -109.631845 285 3174ft 7kts
17-Nov-20 12:20 32.853351 -109.651597 260 3391ft 86kts
17-Nov-20 12:21 32.845190 -109.680253 250 3894ft 97kts
17-Nov-20 12:22 32.835225 -109.710860 250 4409ft 100kts
17-Nov-20 12:23 32.825166 -109.742059 250 4914ft 101kts
17-Nov-20 12:24 32.815227 -109.773267 250 5414ft 100kts
17-Nov-20 12:25 32.805465 -109.804102 250 5914ft 99kts
17-Nov-20 12:26 32.795896 -109.834622 250 6418ft 97kts
17-Nov-20 12:27 32.786851 -109.863735 250 7049ft 79kts
17-Nov-20 12:28 32.779677 -109.886871 250 7416ft 92kts
17-Nov-20 12:29 32.769239 -109.920872 250 7519ft 121kts
17-Nov-20 12:30 32.757701 -109.959108 250 7578ft 124kts
17-Nov-20 12:31 32.746348 -109.996554 245 7857ft 111kts
17-Nov-20 12:32 32.724785 -110.022055 220 8191ft 110kts
17-Nov-20 12:33 32.701401 -110.046464 220 8505ft 112kts
17-Nov-20 12:34 32.678088 -110.071072 220 8786ft 110kts
17-Nov-20 12:35 32.655564 -110.095295 220 9085ft 108kts
17-Nov-20 12:36 32.633774 -110.119180 220 9381ft 105kts
17-Nov-20 12:37 32.612762 -110.142581 220 9682ft 102kts
17-Nov-20 12:38 32.592057 -110.165708 220 9995ft 101kts
17-Nov-20 12:39 32.571694 -110.188384 220 10286ft 98kts
17-Nov-20 12:40 32.548637 -110.213607 220 10049ft 122kts
17-Nov-20 12:41 32.522953 -110.241692 219 9689ft 128kts
17-Nov-20 12:42 32.496343 -110.270490 220 9294ft 130kts
17-Nov-20 12:43 32.469391 -110.299374 220 8881ft 130kts
17-Nov-20 12:44 32.442012 -110.328455 220 8499ft 133kts
17-Nov-20 12:45 32.416072 -110.355897 220 8545ft 116kts
17-Nov-20 12:46 32.392038 -110.381349 220 8669ft 116kts
17-Nov-20 12:47 32.367816 -110.406987 220 8774ft 116kts
17-Nov-20 12:48 32.343751 -110.432489 221 8855ft 116kts
17-Nov-20 12:49 32.322937 -110.463422 230 8751ft 121kts
17-Nov-20 12:50 32.301977 -110.495126 230 8656ft 123kts
17-Nov-20 12:51 32.280772 -110.527024 230 8598ft 121kts
17-Nov-20 12:52 32.260563 -110.557530 230 8686ft 116kts
17-Nov-20 12:53 32.240545 -110.587797 230 8714ft 118kts
17-Nov-20 12:54 32.220183 -110.618473 230 8709ft 118kts
17-Nov-20 12:55 32.206365 -110.653621 260 8372ft 137kts
17-Nov-20 12:56 32.194843 -110.699001 250 7367ft 148kts
17-Nov-20 12:57 32.183357 -110.739303 249 7280ft 97kts
17-Nov-20 12:58 32.167924 -110.759177 220 7965ft 71kts
17-Nov-20 12:59 32.144307 -110.777296 201 7276ft 145kts
17-Nov-20 13:00 32.119253 -110.807353 266 6781ft 141kts
17-Nov-20 13:01 32.115562 -110.854585 282 5874ft 147kts
17-Nov-20 13:02 32.139904 -110.890928 312 5266ft 137kts
17-Nov-20 13:03 32.155067 -110.933380 265 4424ft 136kts
17-Nov-20 13:04 32.136825 -110.961723 159 3325ft 113kts
17-Nov-20 13:05 32.120878 -110.944508 71 2595ft 19kts
17-Nov-20 13:06 32.121196 -110.944013 43 2595ft 0kts
17-Nov-20 13:07 32.122275 -110.943405 47 2591ft 0kts
17-Nov-20 13:08 32.122275 -110.943405 47 2591ft 0kts
17-Nov-20 13:09 32.122275 -110.943405 47 2591ft 0kts
17-Nov-20 13:10 32.122275 -110.943405 47 2591ft 0kts
17-Nov-20 13:11 32.122275 -110.943405 47 2591ft 0kts
17-Nov-20 13:12 32.122275 -110.943405 47 2591ft 0kts

Navigation Log

Ident Type
Flight plan parsing failed, navigation log unavailable